createdAt,value
2024-02-13T00:00:12.062Z,60.05
2024-02-13T00:02:13.754Z,60.06
2024-02-13T00:04:15.608Z,60.03
2024-02-13T00:06:17.292Z,60.17
2024-02-13T00:08:19.138Z,60.01
2024-02-13T00:10:21.010Z,60.06
2024-02-13T00:12:22.646Z,59.97
2024-02-13T00:14:24.376Z,59.93
2024-02-13T00:16:27.428Z,59.77
2024-02-13T00:18:29.235Z,59.91
2024-02-13T00:20:30.952Z,59.89
2024-02-13T00:22:32.684Z,59.61
2024-02-13T00:24:34.534Z,59.80
2024-02-13T00:26:36.162Z,59.93
2024-02-13T00:28:38.259Z,59.97
2024-02-13T00:30:39.928Z,60.00
2024-02-13T00:32:42.996Z,59.84
2024-02-13T00:34:44.754Z,59.79
2024-02-13T00:36:49.316Z,59.78
2024-02-13T00:38:50.988Z,59.80
2024-02-13T00:40:52.651Z,59.71
2024-02-13T00:42:54.302Z,59.96
2024-02-13T00:44:56.053Z,59.83
2024-02-13T00:46:57.730Z,59.92
2024-02-13T00:49:00.767Z,60.04
2024-02-13T00:51:02.640Z,59.75
2024-02-13T00:53:04.702Z,59.98
2024-02-13T00:55:06.873Z,59.96
2024-02-13T00:57:08.483Z,59.89
2024-02-13T00:59:10.601Z,59.90
2024-02-13T01:01:12.270Z,59.96
2024-02-13T01:03:13.996Z,60.02
2024-02-13T01:05:17.028Z,60.15
2024-02-13T01:07:19.217Z,59.81
2024-02-13T01:09:20.865Z,59.95
2024-02-13T01:11:22.654Z,59.96
2024-02-13T01:13:24.254Z,60.00
2024-02-13T01:15:25.979Z,60.10
2024-02-13T01:17:27.834Z,60.15
2024-02-13T01:19:29.553Z,60.07
2024-02-13T01:21:32.587Z,60.25
2024-02-13T01:23:34.322Z,59.62
2024-02-13T01:25:35.998Z,60.22
2024-02-13T01:27:37.789Z,60.29
2024-02-13T01:29:39.480Z,60.42
2024-02-13T01:31:41.125Z,60.26
2024-02-13T01:33:43.114Z,60.48
2024-02-13T01:35:45.018Z,60.27
2024-02-13T01:37:48.099Z,60.47
2024-02-13T01:39:49.793Z,60.47
2024-02-13T01:41:51.589Z,60.40
2024-02-13T01:43:53.262Z,60.55
2024-02-13T01:45:56.967Z,60.35
2024-02-13T01:47:59.846Z,60.54
2024-02-13T01:50:01.646Z,60.56
2024-02-13T01:52:04.626Z,60.40
2024-02-13T01:54:08.976Z,60.54
2024-02-13T01:56:11.596Z,60.58
2024-02-13T01:58:13.878Z,60.38
2024-02-13T02:00:16.037Z,60.36
2024-02-13T02:02:17.738Z,60.46
2024-02-13T02:04:19.796Z,60.62
2024-02-13T02:06:21.722Z,60.73
2024-02-13T02:08:23.497Z,60.75
2024-02-13T02:10:26.526Z,60.82
2024-02-13T02:12:28.218Z,60.86
2024-02-13T02:14:30.052Z,60.73
2024-02-13T02:16:31.673Z,61.21
2024-02-13T02:18:33.532Z,60.85
2024-02-13T02:20:36.853Z,60.65
2024-02-13T02:22:38.604Z,60.57
2024-02-13T02:24:40.223Z,60.90
2024-02-13T02:26:43.273Z,60.77
2024-02-13T02:28:45.105Z,61.00
2024-02-13T02:30:47.775Z,61.00
2024-02-13T02:32:49.675Z,60.91
2024-02-13T02:34:51.399Z,60.87
2024-02-13T02:36:53.089Z,60.99
2024-02-13T02:38:54.969Z,61.06
2024-02-13T02:40:56.744Z,61.00
2024-02-13T02:42:59.774Z,60.98
2024-02-13T02:45:01.431Z,61.38
2024-02-13T02:47:03.376Z,61.07
2024-02-13T02:49:05.015Z,61.44
2024-02-13T02:51:06.809Z,61.46
2024-02-13T02:53:08.473Z,61.43
2024-02-13T02:55:10.105Z,61.47
2024-02-13T02:57:11.691Z,61.37
2024-02-13T02:59:14.745Z,61.47
2024-02-13T03:01:16.440Z,61.31
2024-02-13T03:03:18.272Z,61.30
2024-02-13T03:05:20.084Z,61.27
2024-02-13T03:07:21.910Z,61.32
2024-02-13T03:09:25.920Z,61.28
2024-02-13T03:11:27.641Z,61.41
2024-02-13T03:13:29.341Z,61.24
2024-02-13T03:15:32.320Z,61.60
2024-02-13T03:17:34.305Z,61.29
2024-02-13T03:19:36.028Z,61.19
2024-02-13T03:21:37.670Z,61.26
2024-02-13T03:23:39.449Z,61.03
2024-02-13T03:25:41.067Z,61.21
2024-02-13T03:27:42.735Z,61.22
2024-02-13T03:29:44.401Z,61.56
2024-02-13T03:31:47.364Z,61.26
2024-02-13T03:33:49.099Z,61.27
2024-02-13T03:35:50.795Z,61.28
2024-02-13T03:37:52.400Z,61.24
2024-02-13T03:39:53.994Z,61.34
2024-02-13T03:41:55.591Z,61.40
2024-02-13T03:43:57.221Z,61.29
2024-02-13T03:45:58.840Z,61.07
2024-02-13T03:48:02.030Z,61.16
2024-02-13T03:50:04.231Z,61.09
2024-02-13T03:52:06.283Z,61.51
2024-02-13T03:54:08.400Z,61.37
2024-02-13T03:56:10.074Z,61.18
2024-02-13T03:58:11.770Z,61.47
2024-02-13T04:00:14.226Z,61.52
2024-02-13T04:02:15.911Z,61.38
2024-02-13T04:04:19.012Z,61.67
2024-02-13T04:06:20.894Z,61.59
2024-02-13T04:08:22.647Z,61.35
2024-02-13T04:10:24.301Z,61.34
2024-02-13T04:12:26.024Z,61.57
2024-02-13T04:14:27.889Z,61.56
2024-02-13T04:16:29.686Z,61.68
2024-02-13T04:18:31.343Z,61.82
2024-02-13T04:20:34.313Z,61.80
2024-02-13T04:22:35.933Z,62.03
2024-02-13T04:24:37.570Z,61.76
2024-02-13T04:26:39.800Z,61.70
2024-02-13T04:28:41.464Z,61.97
2024-02-13T04:30:43.006Z,61.78
2024-02-13T04:32:44.751Z,61.70
2024-02-13T04:34:46.523Z,61.90
2024-02-13T04:36:49.633Z,62.22
2024-02-13T04:38:51.432Z,62.06
2024-02-13T04:40:53.157Z,61.84
2024-02-13T04:42:54.798Z,61.79
2024-02-13T04:44:56.510Z,61.95
2024-02-13T04:46:58.194Z,62.00
2024-02-13T04:49:00.004Z,61.78
2024-02-13T04:51:01.731Z,61.41
2024-02-13T04:53:05.011Z,61.87
2024-02-13T04:55:07.310Z,61.59
2024-02-13T04:57:08.899Z,61.63
2024-02-13T04:59:10.560Z,62.06
2024-02-13T05:01:12.625Z,61.65
2024-02-13T05:03:14.202Z,61.86
2024-02-13T05:05:15.994Z,61.94
2024-02-13T05:07:17.575Z,61.56
2024-02-13T05:09:20.542Z,61.68
2024-02-13T05:11:22.335Z,61.59
2024-02-13T05:13:24.067Z,61.89
2024-02-13T05:15:25.643Z,61.91
2024-02-13T05:17:27.416Z,61.96
2024-02-13T05:19:29.403Z,61.60
2024-02-13T05:21:31.035Z,61.96
2024-02-13T05:23:32.698Z,62.11
2024-02-13T05:25:35.681Z,62.27
2024-02-13T05:27:37.280Z,61.99
2024-02-13T05:29:38.958Z,62.10
2024-02-13T05:31:40.573Z,62.35
2024-02-13T05:33:42.408Z,62.43
2024-02-13T05:35:44.145Z,62.79
2024-02-13T05:37:45.821Z,62.55
2024-02-13T05:39:47.514Z,63.02
2024-02-13T05:41:50.565Z,62.72
2024-02-13T05:43:52.190Z,63.32
2024-02-13T05:45:53.906Z,63.52
2024-02-13T05:47:55.602Z,63.10
2024-02-13T05:49:57.184Z,62.99
2024-02-13T05:51:58.842Z,62.92
2024-02-13T05:54:00.669Z,62.99
2024-02-13T05:56:03.362Z,63.08
2024-02-13T05:58:06.404Z,63.15
2024-02-13T06:00:10.834Z,63.01
2024-02-13T06:02:12.821Z,62.77
2024-02-13T06:04:14.466Z,62.91
2024-02-13T06:06:16.215Z,62.99
2024-02-13T06:08:17.957Z,63.05
2024-02-13T06:10:19.613Z,63.07
2024-02-13T06:12:21.457Z,62.95
2024-02-13T06:14:24.540Z,63.37
2024-02-13T06:16:26.279Z,63.00
2024-02-13T06:18:28.191Z,62.78
2024-02-13T06:20:30.038Z,61.69
2024-02-13T06:22:32.807Z,61.99
2024-02-13T06:24:34.583Z,61.52
2024-02-13T06:26:37.276Z,62.40
2024-02-13T06:28:38.971Z,62.34
2024-02-13T06:30:41.940Z,62.80
2024-02-13T06:32:43.671Z,62.59
2024-02-13T06:34:45.732Z,62.25
2024-02-13T06:36:47.435Z,62.30
2024-02-13T06:38:49.022Z,62.31
2024-02-13T06:40:50.768Z,62.42
2024-02-13T06:42:52.427Z,62.28
2024-02-13T06:44:54.188Z,62.01
2024-02-13T06:46:57.582Z,62.21
2024-02-13T06:48:59.361Z,62.61
2024-02-13T06:51:01.478Z,62.77
2024-02-13T06:53:03.488Z,63.24
2024-02-13T06:55:06.045Z,62.75
2024-02-13T06:57:07.937Z,63.18
2024-02-13T06:59:09.608Z,63.26
2024-02-13T07:01:11.319Z,63.43
2024-02-13T07:03:14.707Z,63.63
2024-02-13T07:05:16.418Z,63.74
2024-02-13T07:07:28.983Z,63.44
2024-02-13T07:09:39.606Z,63.74
2024-02-13T07:11:41.381Z,63.91
2024-02-13T07:13:43.483Z,63.80
2024-02-13T07:15:45.320Z,63.95
2024-02-13T07:17:55.905Z,64.16
2024-02-13T07:20:03.944Z,64.05
2024-02-13T07:22:05.764Z,64.49
2024-02-13T07:24:08.264Z,64.05
2024-02-13T07:26:10.374Z,64.05
2024-02-13T07:28:12.245Z,64.13
2024-02-13T07:30:14.320Z,64.42
2024-02-13T07:32:16.295Z,64.34
2024-02-13T07:34:17.994Z,64.12
2024-02-13T07:36:21.103Z,64.18
2024-02-13T07:38:23.043Z,64.10
2024-02-13T07:40:26.714Z,64.19
2024-02-13T07:42:28.631Z,64.20
2024-02-13T07:44:30.369Z,64.36
2024-02-13T07:46:32.135Z,64.42
2024-02-13T07:48:33.940Z,64.52
2024-02-13T07:50:35.768Z,64.66
2024-02-13T07:52:39.029Z,64.69
2024-02-13T07:54:40.684Z,64.74
2024-02-13T07:56:42.428Z,64.99
2024-02-13T07:58:44.349Z,65.15
2024-02-13T08:00:46.173Z,65.20
2024-02-13T08:02:49.614Z,65.23
2024-02-13T08:04:51.331Z,65.35
2024-02-13T08:06:56.344Z,65.34
2024-02-13T08:08:59.631Z,65.48
2024-02-13T08:11:01.361Z,65.29
2024-02-13T08:13:03.041Z,65.60
2024-02-13T08:15:05.655Z,65.57
2024-02-13T08:17:07.433Z,65.33
2024-02-13T08:19:09.494Z,65.78
2024-02-13T08:21:11.286Z,65.95
2024-02-13T08:23:13.112Z,65.75
2024-02-13T08:25:16.298Z,65.65
2024-02-13T08:27:18.009Z,65.54
2024-02-13T08:29:20.035Z,65.82
2024-02-13T08:31:21.870Z,65.78
2024-02-13T08:33:23.996Z,65.38
2024-02-13T08:35:26.336Z,65.29
2024-02-13T08:37:28.382Z,64.92
2024-02-13T08:39:30.286Z,65.10
2024-02-13T08:41:34.158Z,64.69
2024-02-13T08:43:35.982Z,64.60
2024-02-13T08:45:37.867Z,64.50
2024-02-13T08:47:40.063Z,64.21
2024-02-13T08:49:42.027Z,64.16
2024-02-13T08:51:44.141Z,63.07
2024-02-13T08:53:46.358Z,63.00
2024-02-13T08:55:48.077Z,63.62
2024-02-13T08:57:51.207Z,63.54
2024-02-13T08:59:54.454Z,63.75
2024-02-13T09:01:57.835Z,63.32
2024-02-13T09:03:59.961Z,62.59
2024-02-13T09:06:01.939Z,62.41
2024-02-13T09:08:04.085Z,62.04
2024-02-13T09:10:06.634Z,62.23
2024-02-13T09:12:09.133Z,61.21
2024-02-13T09:14:12.588Z,61.01
2024-02-13T09:16:14.429Z,60.10
2024-02-13T09:18:16.288Z,59.56
2024-02-13T09:20:18.328Z,59.54
2024-02-13T09:22:20.107Z,58.80
2024-02-13T09:24:22.916Z,59.08
2024-02-13T09:26:24.820Z,58.32
2024-02-13T09:28:27.414Z,57.48
2024-02-13T09:30:30.700Z,58.26
2024-02-13T09:32:32.604Z,57.63
2024-02-13T09:34:34.632Z,58.09
2024-02-13T09:36:37.858Z,56.84
2024-02-13T09:38:40.368Z,56.20
2024-02-13T09:40:42.088Z,56.47
2024-02-13T09:42:45.074Z,56.02
2024-02-13T09:44:47.079Z,56.14
2024-02-13T09:46:51.500Z,56.48
2024-02-13T09:48:56.309Z,56.48
2024-02-13T09:51:02.630Z,56.42
2024-02-13T09:53:08.885Z,56.40
2024-02-13T09:55:11.602Z,56.09
2024-02-13T09:57:13.918Z,55.94
2024-02-13T09:59:15.881Z,56.20
2024-02-13T10:01:17.972Z,56.60
2024-02-13T10:03:21.437Z,55.89
2024-02-13T10:05:23.423Z,55.54
2024-02-13T10:07:25.507Z,55.39
2024-02-13T10:09:30.262Z,55.08
2024-02-13T10:11:33.032Z,55.07
2024-02-13T10:13:35.714Z,54.84
2024-02-13T10:15:38.343Z,53.92
2024-02-13T10:17:40.187Z,54.09
2024-02-13T10:19:43.556Z,53.88
2024-02-13T10:21:45.427Z,54.00
2024-02-13T10:23:47.427Z,53.77
2024-02-13T10:25:49.301Z,53.69
2024-02-13T10:27:51.183Z,54.39
2024-02-13T10:29:53.013Z,53.80
2024-02-13T10:32:04.837Z,52.93
2024-02-13T10:34:09.849Z,53.31
2024-02-13T10:36:13.051Z,51.89
2024-02-13T10:38:15.915Z,51.69
2024-02-13T10:40:20.872Z,51.79
2024-02-13T10:42:23.715Z,51.92
2024-02-13T10:44:29.269Z,51.69
2024-02-13T10:46:32.598Z,52.01
2024-02-13T10:48:41.961Z,51.60
2024-02-13T10:50:44.813Z,51.62
2024-02-13T10:52:52.075Z,51.56
2024-02-13T10:54:56.639Z,51.51
2024-02-13T10:57:00.270Z,50.63
2024-02-13T10:59:02.400Z,50.11
2024-02-13T11:01:06.538Z,49.90
2024-02-13T11:03:10.042Z,49.38
2024-02-13T11:05:11.909Z,50.25
2024-02-13T11:07:14.502Z,48.88
2024-02-13T11:09:18.071Z,49.71
2024-02-13T11:11:20.114Z,51.01
2024-02-13T11:13:22.039Z,50.50
2024-02-13T11:15:27.301Z,49.37
2024-02-13T11:17:31.538Z,48.80
2024-02-13T11:19:45.019Z,48.15
2024-02-13T11:21:48.615Z,49.07
2024-02-13T11:23:53.349Z,48.57
2024-02-13T11:26:00.104Z,46.39
2024-02-13T11:28:04.862Z,48.51
2024-02-13T11:30:08.005Z,49.55
2024-02-13T11:32:09.777Z,49.29
2024-02-13T11:34:12.230Z,48.79
2024-02-13T11:36:14.873Z,48.18
2024-02-13T11:38:19.028Z,47.41
2024-02-13T11:40:20.837Z,47.86
2024-02-13T11:42:24.198Z,48.33
2024-02-13T11:44:26.009Z,48.14
2024-02-13T11:46:27.879Z,48.46
2024-02-13T11:48:32.819Z,48.60
2024-02-13T11:50:37.152Z,50.38
2024-02-13T11:52:39.222Z,49.47
2024-02-13T11:54:41.343Z,47.54
2024-02-13T11:56:43.694Z,47.76
2024-02-13T11:58:46.815Z,48.21
2024-02-13T12:00:58.657Z,48.35
2024-02-13T12:03:00.476Z,49.31
2024-02-13T12:05:02.382Z,50.14
2024-02-13T12:07:04.509Z,50.31
2024-02-13T12:09:07.329Z,48.96
2024-02-13T12:11:09.778Z,49.08
2024-02-13T12:13:12.510Z,49.66
2024-02-13T12:15:16.136Z,49.49
2024-02-13T12:17:18.171Z,48.31
2024-02-13T12:19:19.997Z,48.23
2024-02-13T12:21:21.761Z,48.62
2024-02-13T12:23:23.473Z,48.47
2024-02-13T12:25:25.168Z,48.80
2024-02-13T12:27:26.867Z,49.43
2024-02-13T12:29:29.225Z,48.99
2024-02-13T12:31:32.972Z,48.19
2024-02-13T12:33:35.126Z,48.22
2024-02-13T12:35:37.005Z,48.23
2024-02-13T12:37:38.730Z,48.97
2024-02-13T12:39:40.456Z,49.08
2024-02-13T12:41:42.190Z,49.21
2024-02-13T12:43:43.879Z,48.55
2024-02-13T12:45:45.571Z,48.37
2024-02-13T12:47:48.752Z,48.63
2024-02-13T12:49:50.689Z,46.80
2024-02-13T12:51:52.744Z,46.97
2024-02-13T12:53:54.507Z,47.93
2024-02-13T12:55:56.428Z,48.46
2024-02-13T12:57:58.388Z,47.68
2024-02-13T13:00:00.482Z,47.30
2024-02-13T13:02:02.484Z,47.59
2024-02-13T13:04:06.359Z,47.95
2024-02-13T13:06:10.147Z,49.61
2024-02-13T13:08:13.511Z,48.48
2024-02-13T13:10:15.494Z,49.40
2024-02-13T13:12:17.320Z,49.10
2024-02-13T13:14:19.101Z,47.69
2024-02-13T13:16:20.812Z,48.75
2024-02-13T13:18:22.491Z,48.39
2024-02-13T13:20:25.966Z,48.23
2024-02-13T13:22:27.787Z,48.22
2024-02-13T13:24:29.505Z,49.02
2024-02-13T13:26:31.300Z,50.19
2024-02-13T13:28:32.939Z,49.17
2024-02-13T13:30:35.042Z,48.98
2024-02-13T13:32:36.884Z,48.65
2024-02-13T13:34:38.831Z,49.29
2024-02-13T13:36:42.404Z,48.40
2024-02-13T13:38:44.399Z,47.29
2024-02-13T13:40:46.322Z,46.37
2024-02-13T13:42:48.092Z,47.48
2024-02-13T13:44:49.872Z,46.61
2024-02-13T13:46:53.313Z,46.52
2024-02-13T13:48:55.074Z,46.89
2024-02-13T13:50:56.928Z,46.82
2024-02-13T13:53:00.134Z,45.59
2024-02-13T13:55:01.878Z,44.37
2024-02-13T13:57:03.668Z,44.68
2024-02-13T13:59:05.488Z,44.38
2024-02-13T14:01:07.544Z,43.86
2024-02-13T14:03:09.276Z,44.22
2024-02-13T14:05:11.039Z,43.72
2024-02-13T14:07:12.923Z,44.40
2024-02-13T14:09:16.011Z,44.13
2024-02-13T14:11:17.724Z,44.06
2024-02-13T14:13:20.247Z,43.98
2024-02-13T14:15:22.066Z,44.80
2024-02-13T14:17:24.054Z,44.27
2024-02-13T14:19:26.242Z,43.76
2024-02-13T14:21:27.862Z,44.31
2024-02-13T14:23:29.399Z,42.84
2024-02-13T14:25:32.988Z,42.70
2024-02-13T14:27:35.079Z,43.53
2024-02-13T14:29:36.994Z,42.90
2024-02-13T14:31:38.870Z,43.39
2024-02-13T14:33:41.074Z,43.78
2024-02-13T14:35:43.133Z,43.13
2024-02-13T14:37:45.666Z,42.67
2024-02-13T14:39:47.513Z,42.24
2024-02-13T14:41:50.736Z,42.86
2024-02-13T14:43:52.706Z,43.52
2024-02-13T14:45:54.516Z,43.91
2024-02-13T14:47:56.453Z,42.94
2024-02-13T14:49:58.577Z,42.82
2024-02-13T14:52:00.465Z,43.24
2024-02-13T14:54:02.453Z,42.89
2024-02-13T14:56:04.746Z,44.17
2024-02-13T14:58:18.254Z,43.39
2024-02-13T15:00:24.485Z,43.59
2024-02-13T15:02:26.775Z,43.26
2024-02-13T15:04:28.504Z,43.21
2024-02-13T15:06:30.180Z,42.94
2024-02-13T15:08:32.113Z,43.17
2024-02-13T15:10:34.099Z,43.21
2024-02-13T15:12:35.918Z,42.81
2024-02-13T15:14:39.711Z,41.75
2024-02-13T15:16:41.554Z,41.69
2024-02-13T15:18:43.544Z,41.59
2024-02-13T15:20:45.779Z,41.89
2024-02-13T15:22:47.567Z,41.57
2024-02-13T15:24:49.416Z,42.03
2024-02-13T15:26:51.488Z,41.67
2024-02-13T15:28:53.412Z,42.00
2024-02-13T15:30:56.777Z,41.87
2024-02-13T15:32:59.100Z,42.92
2024-02-13T15:35:00.948Z,43.30
2024-02-13T15:37:03.290Z,42.53
2024-02-13T15:39:05.325Z,42.74
2024-02-13T15:41:07.498Z,42.99
2024-02-13T15:43:09.493Z,42.10
2024-02-13T15:45:11.452Z,45.09
2024-02-13T15:47:14.633Z,43.38
2024-02-13T15:49:18.450Z,44.83
2024-02-13T15:51:21.709Z,43.67
2024-02-13T15:53:23.616Z,42.29
2024-02-13T15:55:26.683Z,42.96
2024-02-13T15:57:29.697Z,42.46
2024-02-13T15:59:31.459Z,42.49
2024-02-13T16:01:33.351Z,42.57
2024-02-13T16:03:36.781Z,43.39
2024-02-13T16:05:38.699Z,43.63
2024-02-13T16:07:40.427Z,43.73
2024-02-13T16:09:42.586Z,43.57
2024-02-13T16:11:44.459Z,44.25
2024-02-13T16:13:46.528Z,44.71
2024-02-13T16:15:48.308Z,45.32
2024-02-13T16:17:50.081Z,45.16
2024-02-13T16:19:53.332Z,44.95
2024-02-13T16:21:58.045Z,45.41
2024-02-13T16:24:00.078Z,44.79
2024-02-13T16:26:02.189Z,44.61
2024-02-13T16:28:04.672Z,44.99
2024-02-13T16:30:08.030Z,44.91
2024-02-13T16:32:10.910Z,44.82
2024-02-13T16:34:14.870Z,44.59
2024-02-13T16:36:18.552Z,43.86
2024-02-13T16:38:20.374Z,44.46
2024-02-13T16:40:22.125Z,45.03
2024-02-13T16:42:23.836Z,44.82
2024-02-13T16:44:25.710Z,44.65
2024-02-13T16:46:32.818Z,43.70
2024-02-13T16:48:34.538Z,44.23
2024-02-13T16:50:36.440Z,43.75
2024-02-13T16:52:39.679Z,43.47
2024-02-13T16:54:41.951Z,43.18
2024-02-13T16:56:43.750Z,44.24
2024-02-13T16:58:45.645Z,43.32
2024-02-13T17:00:49.419Z,43.10
2024-02-13T17:02:51.913Z,44.03
2024-02-13T17:04:53.771Z,43.85
2024-02-13T17:06:55.622Z,43.54
2024-02-13T17:08:59.027Z,44.43
2024-02-13T17:11:00.814Z,44.11
2024-02-13T17:13:02.532Z,44.53
2024-02-13T17:15:05.238Z,44.46
2024-02-13T17:17:07.002Z,44.53
2024-02-13T17:19:09.098Z,45.01
2024-02-13T17:21:10.994Z,46.06
2024-02-13T17:23:13.121Z,45.31
2024-02-13T17:25:16.662Z,45.20
2024-02-13T17:27:18.621Z,43.94
2024-02-13T17:29:20.528Z,43.75
2024-02-13T17:31:22.378Z,43.59
2024-02-13T17:33:24.241Z,44.51
2024-02-13T17:35:26.295Z,44.50
2024-02-13T17:37:28.219Z,44.38
2024-02-13T17:39:30.443Z,44.27
2024-02-13T17:41:34.323Z,44.03
2024-02-13T17:43:36.219Z,44.95
2024-02-13T17:45:38.059Z,45.11
2024-02-13T17:47:40.198Z,45.16
2024-02-13T17:49:42.001Z,45.18
2024-02-13T17:51:44.283Z,45.98
2024-02-13T17:53:46.137Z,45.19
2024-02-13T17:55:48.115Z,45.14
2024-02-13T17:57:51.469Z,45.17
2024-02-13T17:59:54.857Z,45.14
2024-02-13T18:01:56.639Z,45.69
2024-02-13T18:03:58.820Z,45.80
2024-02-13T18:06:00.826Z,45.74
2024-02-13T18:08:02.809Z,45.70
2024-02-13T18:10:05.811Z,46.79
2024-02-13T18:12:08.139Z,46.44
2024-02-13T18:14:11.605Z,45.91
2024-02-13T18:16:13.318Z,47.74
2024-02-13T18:18:15.282Z,47.94
2024-02-13T18:20:17.448Z,46.37
2024-02-13T18:22:19.269Z,46.23
2024-02-13T18:24:21.155Z,46.49
2024-02-13T18:26:23.292Z,46.56
2024-02-13T18:28:25.240Z,46.39
2024-02-13T18:30:28.698Z,46.86
2024-02-13T18:32:30.760Z,46.89
2024-02-13T18:34:32.960Z,46.54
2024-02-13T18:36:34.861Z,46.81
2024-02-13T18:38:36.768Z,47.06
2024-02-13T18:40:38.516Z,47.20
2024-02-13T18:42:40.377Z,47.29
2024-02-13T18:44:42.396Z,47.53
2024-02-13T18:46:45.723Z,47.64
2024-02-13T18:48:48.041Z,47.19
2024-02-13T18:50:50.240Z,47.68
2024-02-13T18:52:52.446Z,48.08
2024-02-13T18:54:54.324Z,48.22
2024-02-13T18:56:56.745Z,48.40
2024-02-13T18:58:58.848Z,48.87
2024-02-13T19:01:00.556Z,48.51
2024-02-13T19:03:04.268Z,48.55
2024-02-13T19:05:06.915Z,48.54
2024-02-13T19:07:08.942Z,48.70
2024-02-13T19:09:10.946Z,48.94
2024-02-13T19:11:12.930Z,48.97
2024-02-13T19:13:15.447Z,48.77
2024-02-13T19:15:17.320Z,49.48
2024-02-13T19:17:19.402Z,49.39
2024-02-13T19:19:23.123Z,49.55
2024-02-13T19:21:25.438Z,49.79
2024-02-13T19:23:28.044Z,49.84
2024-02-13T19:25:30.560Z,49.80
2024-02-13T19:27:34.452Z,49.99
2024-02-13T19:29:37.854Z,49.91
2024-02-13T19:31:42.640Z,49.68
2024-02-13T19:33:44.625Z,49.79
2024-02-13T19:35:48.209Z,49.95
2024-02-13T19:37:50.995Z,50.17
2024-02-13T19:39:52.889Z,50.35
2024-02-13T19:41:54.921Z,50.07
2024-02-13T19:43:56.822Z,50.09
2024-02-13T19:45:58.890Z,50.33
2024-02-13T19:48:00.950Z,50.14
2024-02-13T19:50:03.965Z,50.27
2024-02-13T19:52:07.739Z,50.45
2024-02-13T19:54:09.768Z,50.75
2024-02-13T19:56:11.794Z,50.79
2024-02-13T19:58:15.196Z,50.77
2024-02-13T20:00:18.161Z,50.98
2024-02-13T20:02:21.032Z,50.76
2024-02-13T20:04:23.857Z,51.11
2024-02-13T20:06:25.572Z,50.97
2024-02-13T20:08:29.552Z,51.02
2024-02-13T20:10:31.421Z,51.24
2024-02-13T20:12:33.648Z,51.06
2024-02-13T20:14:36.454Z,50.84
2024-02-13T20:16:38.774Z,50.74
2024-02-13T20:18:40.952Z,50.78
2024-02-13T20:20:43.127Z,50.93
2024-02-13T20:22:46.849Z,51.02
2024-02-13T20:24:49.999Z,50.94
2024-02-13T20:26:54.314Z,51.07
2024-02-13T20:28:56.263Z,51.27
2024-02-13T20:30:58.228Z,51.35
2024-02-13T20:33:01.391Z,51.49
2024-02-13T20:35:04.024Z,51.23
2024-02-13T20:37:06.161Z,51.12
2024-02-13T20:39:08.547Z,51.15
2024-02-13T20:41:12.625Z,51.23
2024-02-13T20:43:15.087Z,51.24
2024-02-13T20:45:22.253Z,51.46
2024-02-13T20:47:25.431Z,51.45
2024-02-13T20:49:27.662Z,51.73
2024-02-13T20:51:31.592Z,52.02
2024-02-13T20:53:33.659Z,52.32
2024-02-13T20:55:35.738Z,52.28
2024-02-13T20:57:38.883Z,52.17
2024-02-13T20:59:40.772Z,52.69
2024-02-13T21:01:42.783Z,52.43
2024-02-13T21:03:45.005Z,52.56
2024-02-13T21:05:46.778Z,52.56
2024-02-13T21:07:48.900Z,52.38
2024-02-13T21:09:50.722Z,52.70
2024-02-13T21:11:52.842Z,52.44
2024-02-13T21:13:56.277Z,52.65
2024-02-13T21:15:58.491Z,52.48
2024-02-13T21:18:00.504Z,52.36
2024-02-13T21:20:03.175Z,52.26
2024-02-13T21:22:05.439Z,52.44
2024-02-13T21:24:07.767Z,52.51
2024-02-13T21:26:09.662Z,52.58
2024-02-13T21:28:11.420Z,52.66
2024-02-13T21:30:15.112Z,52.83
2024-02-13T21:32:16.981Z,52.85
2024-02-13T21:34:18.901Z,52.60
2024-02-13T21:36:20.962Z,52.63
2024-02-13T21:38:23.131Z,52.57
2024-02-13T21:40:25.444Z,52.75
2024-02-13T21:42:27.291Z,52.63
2024-02-13T21:44:29.137Z,52.74
2024-02-13T21:46:32.647Z,52.84
2024-02-13T21:48:34.837Z,52.96
2024-02-13T21:50:36.646Z,52.77
2024-02-13T21:52:39.420Z,53.03
2024-02-13T21:54:41.130Z,53.18
2024-02-13T21:56:42.861Z,53.40
2024-02-13T21:58:46.326Z,53.55
2024-02-13T22:00:48.890Z,54.19
2024-02-13T22:02:52.988Z,54.33
2024-02-13T22:04:55.764Z,54.40
2024-02-13T22:06:57.497Z,54.78
2024-02-13T22:08:59.202Z,54.71
2024-02-13T22:11:01.153Z,54.96
2024-02-13T22:13:03.420Z,54.89
2024-02-13T22:15:06.173Z,55.19
2024-02-13T22:17:08.147Z,55.04
2024-02-13T22:19:11.582Z,55.55
2024-02-13T22:21:13.862Z,55.41
2024-02-13T22:23:16.008Z,55.65
2024-02-13T22:25:17.991Z,55.81
2024-02-13T22:27:19.890Z,55.92
2024-02-13T22:29:22.912Z,56.16
2024-02-13T22:31:25.622Z,56.23
2024-02-13T22:33:27.530Z,56.49
2024-02-13T22:35:30.878Z,57.06
2024-02-13T22:37:33.043Z,57.13
2024-02-13T22:39:35.108Z,56.77
2024-02-13T22:41:37.389Z,56.63
2024-02-13T22:43:39.133Z,56.88
2024-02-13T22:45:40.907Z,56.79
2024-02-13T22:47:42.910Z,56.88
2024-02-13T22:49:44.674Z,56.44
2024-02-13T22:51:48.310Z,56.84
2024-02-13T22:53:50.110Z,56.72
2024-02-13T22:55:51.947Z,56.68
2024-02-13T22:57:53.876Z,56.76
2024-02-13T22:59:55.925Z,56.98
2024-02-13T23:01:57.797Z,57.09
2024-02-13T23:03:59.541Z,57.19
2024-02-13T23:06:01.289Z,56.93
2024-02-13T23:08:05.574Z,57.13
2024-02-13T23:10:09.068Z,57.16
2024-02-13T23:12:10.874Z,56.72
2024-02-13T23:14:13.274Z,57.07
2024-02-13T23:16:15.460Z,57.25
2024-02-13T23:18:17.816Z,57.17
2024-02-13T23:20:19.610Z,57.26
2024-02-13T23:22:21.352Z,57.30
2024-02-13T23:24:24.439Z,57.79
2024-02-13T23:26:26.206Z,58.01
2024-02-13T23:28:30.249Z,58.16
2024-02-13T23:30:34.342Z,58.31
2024-02-13T23:32:36.113Z,58.79
2024-02-13T23:34:37.922Z,57.67
2024-02-13T23:36:39.642Z,57.96
2024-02-13T23:38:41.295Z,58.49
2024-02-13T23:40:44.402Z,58.78
2024-02-13T23:42:48.666Z,58.37
2024-02-13T23:44:50.590Z,58.10
2024-02-13T23:46:52.341Z,58.23
2024-02-13T23:48:54.469Z,57.83
2024-02-13T23:50:56.410Z,58.06
2024-02-13T23:52:58.236Z,57.30
2024-02-13T23:55:00.096Z,57.64
2024-02-13T23:57:03.295Z,58.36
2024-02-13T23:59:05.083Z,58.41
